createdAt,value
2023-02-16T00:01:03.333Z,0.82
2023-02-16T00:06:14.322Z,0.73
2023-02-16T00:11:38.767Z,0.70
2023-02-16T00:16:44.319Z,0.70
2023-02-16T00:21:49.557Z,0.57
2023-02-16T00:26:58.055Z,0.73
2023-02-16T00:32:05.887Z,0.86
2023-02-16T00:37:15.517Z,0.80
2023-02-16T00:42:25.458Z,0.54
2023-02-16T00:47:35.281Z,0.54
2023-02-16T00:52:43.205Z,0.75
2023-02-16T00:57:53.362Z,0.40
2023-02-16T01:03:03.624Z,0.34
2023-02-16T01:08:26.382Z,0.30
2023-02-16T01:13:35.612Z,0.25
2023-02-16T01:18:41.304Z,0.28
2023-02-16T01:23:46.377Z,0.24
2023-02-16T01:28:54.373Z,0.23
2023-02-16T01:33:59.519Z,0.25
2023-02-16T01:39:07.305Z,0.15
2023-02-16T01:44:19.493Z,0.18
2023-02-16T01:49:24.945Z,0.12
2023-02-16T01:54:38.577Z,0.13
2023-02-16T02:00:09.989Z,0.11
2023-02-16T02:05:39.708Z,0.21
2023-02-16T02:10:53.292Z,0.09
2023-02-16T02:16:02.881Z,0.14
2023-02-16T02:21:43.966Z,0.15
2023-02-16T02:27:10.701Z,0.12
2023-02-16T02:32:28.131Z,0.08
2023-02-16T02:37:47.049Z,0.00
2023-02-16T02:43:03.979Z,-0.04
2023-02-16T02:48:09.514Z,0.06
2023-02-16T02:53:18.878Z,-0.05
2023-02-16T02:58:41.185Z,-0.05
2023-02-16T03:03:50.582Z,0.08
2023-02-16T03:09:00.825Z,-0.13
2023-02-16T03:14:13.546Z,-0.14
2023-02-16T03:19:33.708Z,-0.12
2023-02-16T03:24:51.244Z,-0.05
2023-02-16T03:30:00.563Z,-0.12
2023-02-16T03:35:05.727Z,-0.14
2023-02-16T03:40:26.654Z,-0.02
2023-02-16T03:45:35.647Z,-0.10
2023-02-16T03:50:40.848Z,-0.06
2023-02-16T03:55:48.491Z,-0.18
2023-02-16T04:00:56.101Z,-0.18
2023-02-16T04:06:01.009Z,-0.17
2023-02-16T04:11:27.273Z,-0.09
2023-02-16T04:16:35.127Z,-0.21
2023-02-16T04:21:40.435Z,-0.10
2023-02-16T04:26:46.007Z,-0.23
2023-02-16T04:31:53.804Z,-0.18
2023-02-16T04:36:59.017Z,0.03
2023-02-16T04:42:04.272Z,0.08
2023-02-16T04:47:13.460Z,-0.05
2023-02-16T04:52:18.515Z,0.08
2023-02-16T04:57:24.391Z,0.19
2023-02-16T05:02:32.139Z,0.25
2023-02-16T05:07:37.096Z,0.26
2023-02-16T05:12:54.481Z,-0.02
2023-02-16T05:18:02.435Z,-0.04
2023-02-16T05:23:07.401Z,-0.20
2023-02-16T05:28:12.517Z,-0.25
2023-02-16T05:33:20.253Z,-0.27
2023-02-16T05:38:25.154Z,-0.30
2023-02-16T05:43:32.585Z,-0.37
2023-02-16T05:48:40.281Z,-0.51
2023-02-16T05:53:45.565Z,-0.54
2023-02-16T05:58:50.644Z,-0.52
2023-02-16T06:03:58.366Z,-0.52
2023-02-16T06:09:03.399Z,-0.26
2023-02-16T06:14:11.305Z,-0.37
2023-02-16T06:19:20.508Z,-0.42
2023-02-16T06:24:28.458Z,-0.52
2023-02-16T06:29:33.777Z,-0.46
2023-02-16T06:34:41.685Z,-0.52
2023-02-16T06:39:49.859Z,-0.47
2023-02-16T06:45:05.568Z,-0.53
2023-02-16T06:50:15.216Z,-0.42
2023-02-16T06:55:20.201Z,-0.32
2023-02-16T07:00:25.616Z,-0.25
2023-02-16T07:05:35.067Z,-0.15
2023-02-16T07:10:49.460Z,-0.15
2023-02-16T07:15:55.381Z,-0.05
2023-02-16T07:21:03.491Z,0.08
2023-02-16T07:26:08.730Z,0.17
2023-02-16T07:31:16.813Z,0.18
2023-02-16T07:36:25.362Z,0.18
2023-02-16T07:41:32.252Z,0.40
2023-02-16T07:46:45.263Z,0.78
2023-02-16T07:51:55.583Z,0.86
2023-02-16T07:57:06.364Z,0.81
2023-02-16T08:02:27.876Z,1.36
2023-02-16T08:07:35.631Z,1.42
2023-02-16T08:12:41.885Z,1.23
2023-02-16T08:17:47.115Z,1.38
2023-02-16T08:23:21.366Z,1.73
2023-02-16T08:28:55.129Z,2.49
2023-02-16T08:34:30.677Z,4.48
2023-02-16T08:39:44.759Z,3.93
2023-02-16T08:44:54.885Z,5.33
2023-02-16T08:49:59.968Z,6.68
2023-02-16T08:55:04.878Z,5.80
2023-02-16T09:00:27.640Z,6.41
2023-02-16T09:05:32.692Z,6.96
2023-02-16T09:10:46.458Z,6.78
2023-02-16T09:16:01.037Z,7.31
2023-02-16T09:21:15.346Z,7.39
2023-02-16T09:26:22.346Z,8.28
2023-02-16T09:31:32.765Z,8.44
2023-02-16T09:36:53.282Z,9.93
2023-02-16T09:42:24.642Z,12.19
2023-02-16T09:47:36.417Z,12.86
2023-02-16T09:52:46.327Z,11.01
2023-02-16T09:58:01.779Z,10.94
2023-02-16T10:03:37.038Z,12.88
2023-02-16T10:09:23.792Z,12.56
2023-02-16T10:14:50.583Z,12.20
2023-02-16T10:20:02.264Z,12.41
2023-02-16T10:25:13.626Z,10.81
2023-02-16T10:30:21.647Z,10.88
2023-02-16T10:35:39.988Z,13.93
2023-02-16T10:40:53.331Z,11.43
2023-02-16T10:46:02.051Z,11.55
2023-02-16T10:51:14.396Z,11.53
2023-02-16T10:56:42.110Z,12.63
2023-02-16T11:01:50.124Z,13.61
2023-02-16T11:07:27.807Z,14.47
2023-02-16T11:12:43.650Z,13.09
2023-02-16T11:17:54.583Z,12.98
2023-02-16T11:23:24.603Z,13.19
2023-02-16T11:28:36.249Z,14.85
2023-02-16T11:33:42.349Z,14.25
2023-02-16T11:39:00.150Z,13.53
2023-02-16T11:44:06.904Z,13.57
2023-02-16T11:49:35.462Z,13.58
2023-02-16T11:54:51.986Z,14.55
2023-02-16T11:59:59.654Z,14.27
2023-02-16T12:05:30.959Z,13.54
2023-02-16T12:10:48.213Z,14.83
2023-02-16T12:16:04.753Z,13.92
2023-02-16T12:21:22.921Z,14.54
2023-02-16T12:26:42.938Z,14.30
2023-02-16T12:32:02.166Z,14.72
2023-02-16T12:37:17.827Z,14.78
2023-02-16T12:42:48.761Z,14.11
2023-02-16T12:48:01.564Z,14.64
2023-02-16T12:53:12.063Z,14.11
2023-02-16T12:58:26.463Z,14.94
2023-02-16T13:03:38.498Z,15.01
2023-02-16T13:08:54.233Z,14.50
2023-02-16T13:14:09.383Z,14.51
2023-02-16T13:19:16.622Z,14.54
2023-02-16T13:24:32.042Z,14.66
2023-02-16T13:30:00.475Z,14.74
2023-02-16T13:35:40.067Z,15.33
2023-02-16T13:41:06.732Z,14.68
2023-02-16T13:46:27.932Z,14.06
2023-02-16T13:51:47.047Z,13.97
2023-02-16T13:56:54.045Z,14.96
2023-02-16T14:02:02.456Z,14.29
2023-02-16T14:07:36.018Z,14.28
2023-02-16T14:12:44.543Z,15.12
2023-02-16T14:17:52.190Z,14.72
2023-02-16T14:23:00.277Z,14.44
2023-02-16T14:28:10.075Z,13.72
2023-02-16T14:33:25.797Z,14.05
2023-02-16T14:38:37.076Z,13.45
2023-02-16T14:43:45.169Z,13.34
2023-02-16T14:49:15.946Z,13.43
2023-02-16T14:54:55.060Z,13.77
2023-02-16T15:00:04.943Z,13.05
2023-02-16T15:05:25.124Z,13.10
2023-02-16T15:10:32.315Z,12.44
2023-02-16T15:15:47.122Z,11.87
2023-02-16T15:20:58.543Z,11.66
2023-02-16T15:26:08.118Z,11.41
2023-02-16T15:31:23.993Z,11.24
2023-02-16T15:36:38.835Z,11.10
2023-02-16T15:41:51.413Z,10.92
2023-02-16T15:47:09.828Z,10.53
2023-02-16T15:52:21.994Z,10.05
2023-02-16T15:57:33.811Z,9.95
2023-02-16T16:02:43.838Z,9.65
2023-02-16T16:07:52.804Z,9.05
2023-02-16T16:13:01.608Z,9.07
2023-02-16T16:18:06.884Z,8.57
2023-02-16T16:23:30.012Z,8.15
2023-02-16T16:28:38.140Z,8.20
2023-02-16T16:34:00.242Z,8.24
2023-02-16T16:39:25.534Z,7.96
2023-02-16T16:44:37.399Z,7.79
2023-02-16T16:49:53.810Z,6.72
2023-02-16T16:55:01.416Z,7.06
2023-02-16T17:00:07.564Z,6.72
2023-02-16T17:05:13.230Z,6.12
2023-02-16T17:10:24.777Z,6.01
2023-02-16T17:15:40.830Z,6.02
2023-02-16T17:20:48.239Z,6.03
2023-02-16T17:25:56.314Z,6.10
2023-02-16T17:31:01.339Z,5.96
2023-02-16T17:36:08.415Z,6.08
2023-02-16T17:41:23.551Z,5.68
2023-02-16T17:46:31.693Z,5.63
2023-02-16T17:51:38.319Z,5.47
2023-02-16T17:56:51.454Z,5.54
2023-02-16T18:01:56.508Z,5.30
2023-02-16T18:07:01.770Z,5.44
2023-02-16T18:12:11.906Z,5.63
2023-02-16T18:17:17.128Z,5.48
2023-02-16T18:22:22.231Z,5.53
2023-02-16T18:27:32.446Z,5.38
2023-02-16T18:32:38.843Z,5.37
2023-02-16T18:37:45.946Z,5.33
2023-02-16T18:42:53.961Z,5.42
2023-02-16T18:47:58.953Z,5.38
2023-02-16T18:53:04.299Z,5.45
2023-02-16T18:58:16.683Z,5.33
2023-02-16T19:03:22.085Z,5.26
2023-02-16T19:08:27.171Z,5.24
2023-02-16T19:13:38.115Z,5.23
2023-02-16T19:18:43.745Z,5.08
2023-02-16T19:23:50.351Z,5.07
2023-02-16T19:28:58.857Z,4.94
2023-02-16T19:34:05.533Z,4.79
2023-02-16T19:39:13.154Z,4.60
2023-02-16T19:44:21.305Z,4.96
2023-02-16T19:49:26.810Z,4.72
2023-02-16T19:54:32.767Z,4.56
2023-02-16T19:59:40.923Z,4.60
2023-02-16T20:04:46.969Z,4.65
2023-02-16T20:09:52.605Z,4.78
2023-02-16T20:15:00.505Z,4.75
2023-02-16T20:20:05.647Z,4.79
2023-02-16T20:25:13.622Z,4.88
2023-02-16T20:30:25.365Z,5.03
2023-02-16T20:35:30.445Z,5.00
2023-02-16T20:40:35.716Z,5.02
2023-02-16T20:45:46.223Z,5.28
2023-02-16T20:50:57.421Z,5.39
2023-02-16T20:56:08.290Z,5.42
2023-02-16T21:01:19.982Z,5.20
2023-02-16T21:06:25.817Z,5.33
2023-02-16T21:11:31.300Z,5.66
2023-02-16T21:16:41.238Z,5.75
2023-02-16T21:21:46.318Z,6.67
2023-02-16T21:26:51.398Z,6.32
2023-02-16T21:31:59.260Z,7.04
2023-02-16T21:37:06.458Z,7.45
2023-02-16T21:42:11.534Z,7.49
2023-02-16T21:47:32.277Z,7.60
2023-02-16T21:52:39.954Z,7.64
2023-02-16T21:57:45.291Z,7.64
2023-02-16T22:02:53.732Z,7.80
2023-02-16T22:07:58.890Z,7.84
2023-02-16T22:13:04.266Z,7.86
2023-02-16T22:18:11.919Z,7.65
2023-02-16T22:23:16.852Z,7.33
2023-02-16T22:28:21.804Z,7.03
2023-02-16T22:33:29.354Z,7.68
2023-02-16T22:38:34.555Z,7.73
2023-02-16T22:43:40.314Z,7.79
2023-02-16T22:48:47.966Z,8.10
2023-02-16T22:53:53.157Z,8.18
2023-02-16T22:58:58.297Z,8.15
2023-02-16T23:04:06.132Z,8.23
2023-02-16T23:09:15.863Z,8.31
2023-02-16T23:14:22.227Z,8.34
2023-02-16T23:19:30.082Z,8.33
2023-02-16T23:24:35.139Z,8.37
2023-02-16T23:29:40.312Z,8.32
2023-02-16T23:34:47.997Z,8.23
2023-02-16T23:39:53.148Z,8.25
2023-02-16T23:44:58.144Z,8.32
2023-02-16T23:50:05.636Z,8.35
2023-02-16T23:55:11.393Z,8.38
